createdAt,value
2017-03-05T00:00:29.469Z,87.57
2017-03-05T00:01:39.249Z,87.19
2017-03-05T00:02:49.040Z,87.38
2017-03-05T00:03:59.664Z,87.85
2017-03-05T00:05:08.989Z,87.57
2017-03-05T00:06:18.728Z,87.95
2017-03-05T00:07:28.054Z,88.23
2017-03-05T00:08:37.579Z,88.04
2017-03-05T00:09:46.569Z,88.04
2017-03-05T00:10:56.540Z,88.23
2017-03-05T00:12:06.267Z,88.33
2017-03-05T00:13:15.696Z,88.42
2017-03-05T00:14:25.032Z,88.33
2017-03-05T00:15:34.973Z,87.95
2017-03-05T00:16:44.971Z,87.95
2017-03-05T00:17:54.351Z,87.38
2017-03-05T00:19:03.291Z,87.47
2017-03-05T00:20:12.647Z,86.9
2017-03-05T00:21:22.363Z,87.19
2017-03-05T00:22:32.910Z,87.28
2017-03-05T00:23:42.459Z,87.19
2017-03-05T00:24:51.386Z,87.38
2017-03-05T00:26:00.711Z,87.19
2017-03-05T00:27:10.661Z,87.09
2017-03-05T00:28:20.015Z,87.85
2017-03-05T00:29:29.361Z,86.99
2017-03-05T00:30:38.696Z,86.99
2017-03-05T00:31:48.041Z,86.9
2017-03-05T00:32:58.545Z,86.9
2017-03-05T00:34:09.155Z,86.8
2017-03-05T00:35:18.096Z,86.43
2017-03-05T00:36:27.020Z,87.09
2017-03-05T00:37:36.803Z,86.52
2017-03-05T00:38:46.664Z,86.43
2017-03-05T00:39:55.628Z,86.76
2017-03-05T00:41:05.816Z,86.57
2017-03-05T00:42:15.161Z,86.57
2017-03-05T00:43:24.599Z,86.66
2017-03-05T00:44:34.929Z,87.04
2017-03-05T00:45:44.266Z,87.04
2017-03-05T00:46:54.005Z,87.04
2017-03-05T00:48:02.916Z,86.94
2017-03-05T00:49:11.832Z,87.42
2017-03-05T00:50:21.615Z,87.42
2017-03-05T00:51:31.414Z,87.8
2017-03-05T00:52:41.607Z,88.28
2017-03-05T00:53:50.930Z,88.37
2017-03-05T00:55:00.267Z,88.09
2017-03-05T00:56:09.981Z,88.56
2017-03-05T00:57:20.517Z,89.42
2017-03-05T00:58:30.465Z,89.14
2017-03-05T00:59:40.977Z,89.32
2017-03-05T01:00:50.363Z,89.23
2017-03-05T01:01:59.835Z,89.89
2017-03-05T01:03:09.594Z,89.8
2017-03-05T01:04:18.513Z,89.89
2017-03-05T01:05:27.842Z,89.99
2017-03-05T01:06:37.166Z,89.7
2017-03-05T01:07:46.786Z,89.61
2017-03-05T01:08:56.520Z,90.28
2017-03-05T01:10:06.680Z,90.08
2017-03-05T01:11:16.415Z,90.08
2017-03-05T01:12:25.741Z,90.75
2017-03-05T01:13:35.223Z,90.75
2017-03-05T01:14:44.546Z,91.03
2017-03-05T01:15:53.912Z,91.32
2017-03-05T01:17:03.253Z,91.61
2017-03-05T01:18:12.977Z,92.18
2017-03-05T01:19:22.356Z,91.99
2017-03-05T01:20:32.914Z,91.51
2017-03-05T01:21:41.856Z,92.75
2017-03-05T01:22:51.178Z,92.75
2017-03-05T01:24:00.524Z,92.65
2017-03-05T01:25:09.911Z,92.65
2017-03-05T01:26:19.669Z,93.23
2017-03-05T01:27:29.030Z,92.75
2017-03-05T01:28:38.373Z,92.75
2017-03-05T01:29:48.507Z,92.75
2017-03-05T01:30:58.868Z,92.84
2017-03-05T01:32:08.221Z,93.04
2017-03-05T01:33:17.550Z,93.04
2017-03-05T01:34:27.740Z,93.51
2017-03-05T01:35:36.659Z,93.51
2017-03-05T01:36:46.189Z,93.51
2017-03-05T01:37:55.530Z,93.32
2017-03-05T01:39:04.847Z,93.23
2017-03-05T01:40:13.770Z,93.75
2017-03-05T01:41:23.112Z,94.08
2017-03-05T01:42:32.138Z,94.03
2017-03-05T01:43:41.493Z,93.89
2017-03-05T01:44:50.851Z,93.65
2017-03-05T01:45:59.790Z,93.84
2017-03-05T01:47:09.938Z,94.6
2017-03-05T01:48:19.824Z,94.22
2017-03-05T01:49:29.161Z,93.94
2017-03-05T01:50:39.321Z,94.13
2017-03-05T01:51:49.060Z,93.94
2017-03-05T01:52:58.413Z,94.32
2017-03-05T01:54:07.978Z,93.84
2017-03-05T01:55:17.312Z,93.94
2017-03-05T01:56:27.066Z,93.84
2017-03-05T01:57:36.807Z,93.65
2017-03-05T01:58:46.959Z,93.94
2017-03-05T01:59:58.058Z,93.65
2017-03-05T02:01:07.383Z,93.84
2017-03-05T02:02:16.302Z,93.46
2017-03-05T02:03:25.619Z,93.08
2017-03-05T02:04:34.950Z,93.46
2017-03-05T02:05:44.313Z,93.46
2017-03-05T02:06:54.066Z,93.08
2017-03-05T02:08:03.823Z,93.37
2017-03-05T02:09:13.174Z,93.84
2017-03-05T02:10:22.106Z,93.84
2017-03-05T02:11:31.650Z,93.84
2017-03-05T02:12:42.615Z,92.61
2017-03-05T02:13:51.990Z,93.08
2017-03-05T02:15:01.315Z,93.08
2017-03-05T02:16:11.467Z,92.89
2017-03-05T02:17:20.436Z,93.18
2017-03-05T02:18:29.769Z,92.89
2017-03-05T02:19:39.097Z,92.7
2017-03-05T02:20:48.824Z,92.32
2017-03-05T02:21:57.749Z,92.51
2017-03-05T02:23:07.225Z,92.41
2017-03-05T02:24:16.139Z,92.8
2017-03-05T02:25:25.053Z,92.7
2017-03-05T02:26:34.832Z,92.22
2017-03-05T02:27:44.180Z,91.47
2017-03-05T02:28:53.106Z,91.56
2017-03-05T02:30:02.834Z,90.7
2017-03-05T02:31:12.983Z,90.61
2017-03-05T02:32:22.736Z,90.7
2017-03-05T02:33:32.108Z,90.23
2017-03-05T02:34:41.497Z,90.04
2017-03-05T02:35:51.257Z,90.7
2017-03-05T02:37:00.592Z,90.61
2017-03-05T02:38:09.962Z,90.52
2017-03-05T02:39:19.725Z,90.23
2017-03-05T02:40:29.075Z,90.14
2017-03-05T02:41:39.209Z,90.42
2017-03-05T02:42:49.355Z,89.66
2017-03-05T02:43:59.090Z,89.94
2017-03-05T02:45:08.821Z,90.14
2017-03-05T02:46:18.249Z,89.66
2017-03-05T02:47:27.972Z,89.94
2017-03-05T02:48:37.713Z,89.37
2017-03-05T02:49:47.442Z,89.18
2017-03-05T02:50:56.359Z,89.18
2017-03-05T02:52:06.904Z,89.37
2017-03-05T02:53:17.068Z,89.85
2017-03-05T02:54:26.807Z,89.09
2017-03-05T02:55:35.725Z,89.09
2017-03-05T02:56:45.470Z,89.18
2017-03-05T02:57:55.246Z,89.09
2017-03-05T02:59:04.574Z,89.09
2017-03-05T03:00:13.895Z,89.37
2017-03-05T03:01:24.055Z,89.09
2017-03-05T03:02:35.031Z,89.37
2017-03-05T03:03:44.910Z,89.37
2017-03-05T03:04:54.228Z,89
2017-03-05T03:06:03.201Z,89.18
2017-03-05T03:07:12.182Z,89.09
2017-03-05T03:08:21.921Z,89.28
2017-03-05T03:09:31.902Z,89.09
2017-03-05T03:10:42.044Z,89.18
2017-03-05T03:11:51.788Z,89.09
2017-03-05T03:13:01.525Z,89.37
2017-03-05T03:14:11.280Z,89.28
2017-03-05T03:15:20.339Z,89.28
2017-03-05T03:16:30.512Z,89.18
2017-03-05T03:17:39.840Z,89.28
2017-03-05T03:18:49.193Z,89.18
2017-03-05T03:19:58.953Z,89.18
2017-03-05T03:21:08.741Z,89.66
2017-03-05T03:22:18.884Z,89.94
2017-03-05T03:23:28.613Z,90.33
2017-03-05T03:24:37.542Z,91.85
2017-03-05T03:25:47.280Z,92.8
2017-03-05T03:26:56.802Z,92.89
2017-03-05T03:28:06.129Z,93.27
2017-03-05T03:29:15.876Z,94.32
2017-03-05T03:30:25.611Z,94.89
2017-03-05T03:31:35.759Z,95.17
2017-03-05T03:32:46.202Z,96.41
2017-03-05T03:33:55.141Z,97.03
2017-03-05T03:35:04.877Z,96.84
2017-03-05T03:36:14.628Z,97.12
2017-03-05T03:37:24.356Z,97.41
2017-03-05T03:38:34.959Z,96.84
2017-03-05T03:39:43.911Z,94.18
2017-03-05T03:40:54.047Z,94.37
2017-03-05T03:42:03.794Z,94.08
2017-03-05T03:43:12.725Z,94.46
2017-03-05T03:44:22.142Z,94.79
2017-03-05T03:45:32.304Z,94.89
2017-03-05T03:46:41.235Z,95.46
2017-03-05T03:47:50.968Z,95.36
2017-03-05T03:49:00.318Z,95.46
2017-03-05T03:50:09.793Z,94.98
2017-03-05T03:51:19.544Z,94.42
2017-03-05T03:52:28.859Z,94.79
2017-03-05T03:53:37.769Z,94.79
2017-03-05T03:54:47.495Z,94.42
2017-03-05T03:55:57.030Z,94.23
2017-03-05T03:57:06.769Z,94.51
2017-03-05T03:58:16.976Z,93.94
2017-03-05T03:59:26.737Z,94.23
2017-03-05T04:00:36.463Z,94.13
2017-03-05T04:01:47.193Z,93.56
2017-03-05T04:02:56.120Z,93.65
2017-03-05T04:04:05.461Z,93.84
2017-03-05T04:05:15.624Z,92.8
2017-03-05T04:06:24.976Z,92.51
2017-03-05T04:07:36.242Z,92.61
2017-03-05T04:08:45.967Z,92.8
2017-03-05T04:09:55.285Z,92.51
2017-03-05T04:11:05.023Z,91.56
2017-03-05T04:12:14.345Z,91.38
2017-03-05T04:13:23.403Z,89.86
2017-03-05T04:14:33.135Z,90.71
2017-03-05T04:15:42.067Z,90.8
2017-03-05T04:16:51.419Z,90.14
2017-03-05T04:18:00.752Z,89.38
2017-03-05T04:19:10.654Z,89.09
2017-03-05T04:20:20.388Z,89
2017-03-05T04:21:29.704Z,89.76
2017-03-05T04:22:39.459Z,89.19
2017-03-05T04:23:48.810Z,89
2017-03-05T04:24:58.587Z,88.34
2017-03-05T04:26:08.732Z,89.09
2017-03-05T04:27:18.082Z,89.09
2017-03-05T04:28:27.408Z,88.53
2017-03-05T04:29:37.148Z,87.86
2017-03-05T04:30:47.288Z,87.76
2017-03-05T04:31:57.013Z,87.76
2017-03-05T04:33:05.932Z,88.15
2017-03-05T04:34:14.858Z,88.15
2017-03-05T04:35:23.772Z,87.95
2017-03-05T04:36:33.812Z,87.95
2017-03-05T04:37:44.783Z,87.57
2017-03-05T04:38:54.937Z,88.05
2017-03-05T04:40:05.082Z,88.05
2017-03-05T04:41:15.642Z,87.57
2017-03-05T04:42:25.021Z,87.95
2017-03-05T04:43:33.933Z,87.38
2017-03-05T04:44:43.679Z,87.48
2017-03-05T04:45:53.016Z,87.19
2017-03-05T04:47:02.331Z,87.57
2017-03-05T04:48:12.321Z,87.76
2017-03-05T04:49:21.247Z,87.86
2017-03-05T04:50:30.561Z,87.57
2017-03-05T04:51:39.885Z,88.43
2017-03-05T04:52:48.812Z,87.57
2017-03-05T04:53:58.132Z,87.95
2017-03-05T04:55:08.691Z,87.86
2017-03-05T04:56:18.493Z,87.86
2017-03-05T04:57:27.823Z,87.48
2017-03-05T04:58:37.557Z,87.48
2017-03-05T04:59:47.447Z,87.19
2017-03-05T05:00:57.586Z,87.48
2017-03-05T05:02:07.377Z,87.82
2017-03-05T05:03:17.941Z,87.38
2017-03-05T05:04:27.732Z,88.34
2017-03-05T05:05:37.058Z,88.2
2017-03-05T05:06:46.406Z,88.29
2017-03-05T05:07:56.164Z,88.39
2017-03-05T05:09:05.503Z,88.29
2017-03-05T05:10:15.232Z,88.48
2017-03-05T05:11:24.554Z,87.82
2017-03-05T05:12:33.468Z,88.57
2017-03-05T05:13:42.399Z,88.39
2017-03-05T05:14:51.318Z,88.29
2017-03-05T05:16:01.054Z,87.91
2017-03-05T05:17:10.374Z,88.01
2017-03-05T05:18:19.702Z,88.57
2017-03-05T05:19:29.427Z,88.2
2017-03-05T05:20:38.764Z,88.29
2017-03-05T05:21:48.908Z,87.91
2017-03-05T05:22:58.661Z,87.91
2017-03-05T05:24:08.385Z,88.24
2017-03-05T05:25:18.303Z,87.82
2017-03-05T05:26:27.637Z,88.1
2017-03-05T05:27:37.394Z,88.2
2017-03-05T05:28:46.734Z,88.29
2017-03-05T05:29:56.055Z,89.24
2017-03-05T05:31:05.802Z,88.76
2017-03-05T05:32:15.117Z,89.43
2017-03-05T05:33:24.454Z,89.14
2017-03-05T05:34:34.185Z,88.86
2017-03-05T05:35:44.322Z,89.24
2017-03-05T05:36:55.159Z,88.95
2017-03-05T05:38:05.297Z,89.24
2017-03-05T05:39:14.613Z,89.14
2017-03-05T05:40:23.940Z,89.14
2017-03-05T05:41:33.261Z,89.24
2017-03-05T05:42:42.729Z,89.14
2017-03-05T05:43:52.482Z,88.95
2017-03-05T05:45:01.831Z,88.95
2017-03-05T05:46:11.149Z,88.95
2017-03-05T05:47:20.502Z,89.24
2017-03-05T05:48:30.692Z,89.14
2017-03-05T05:49:41.239Z,89.05
2017-03-05T05:50:50.577Z,89.14
2017-03-05T05:52:00.331Z,88.95
2017-03-05T05:53:09.657Z,88.95
2017-03-05T05:54:18.729Z,88.95
2017-03-05T05:55:28.055Z,89.14
2017-03-05T05:56:38.217Z,88.95
2017-03-05T05:57:47.569Z,88.86
2017-03-05T05:58:56.933Z,89.24
2017-03-05T06:00:06.265Z,88.95
2017-03-05T06:01:15.617Z,89.05
2017-03-05T06:02:24.953Z,89.24
2017-03-05T06:03:34.295Z,89.05
2017-03-05T06:04:43.223Z,88.29
2017-03-05T06:05:52.845Z,88.53
2017-03-05T06:07:02.177Z,88.62
2017-03-05T06:08:12.751Z,88.15
2017-03-05T06:09:22.532Z,87.82
2017-03-05T06:10:31.439Z,88.1
2017-03-05T06:11:40.455Z,88.2
2017-03-05T06:12:49.783Z,87.86
2017-03-05T06:13:58.730Z,88.01
2017-03-05T06:15:07.672Z,87.91
2017-03-05T06:16:17.828Z,88.2
2017-03-05T06:17:27.751Z,87.76
2017-03-05T06:18:37.063Z,88.29
2017-03-05T06:19:47.231Z,87.91
2017-03-05T06:20:56.574Z,87.86
2017-03-05T06:22:06.338Z,87.86
2017-03-05T06:23:16.426Z,87.82
2017-03-05T06:24:25.349Z,88.15
2017-03-05T06:25:34.704Z,87.95
2017-03-05T06:26:44.037Z,87.95
2017-03-05T06:27:53.791Z,88.24
2017-03-05T06:29:04.103Z,88.43
2017-03-05T06:30:13.013Z,88.15
2017-03-05T06:31:22.355Z,88.62
2017-03-05T06:32:32.092Z,88.43
2017-03-05T06:33:41.846Z,88.81
2017-03-05T06:34:51.341Z,88.62
2017-03-05T06:36:01.085Z,89.28
2017-03-05T06:37:10.838Z,89
2017-03-05T06:38:20.598Z,89.28
2017-03-05T06:39:30.763Z,89.19
2017-03-05T06:40:40.649Z,89.38
2017-03-05T06:41:51.230Z,89.09
2017-03-05T06:43:00.970Z,89.19
2017-03-05T06:44:10.306Z,89.57
2017-03-05T06:45:19.253Z,89.28
2017-03-05T06:46:29.253Z,89.47
2017-03-05T06:47:38.597Z,89.67
2017-03-05T06:48:48.042Z,90.14
2017-03-05T06:49:58.582Z,90.14
2017-03-05T06:51:07.915Z,90.23
2017-03-05T06:52:17.405Z,90.33
2017-03-05T06:53:26.345Z,90.52
2017-03-05T06:54:36.077Z,90.42
2017-03-05T06:55:45.429Z,90.33
2017-03-05T06:56:55.634Z,91.09
2017-03-05T06:58:05.028Z,90.9
2017-03-05T06:59:15.165Z,90.9
2017-03-05T07:00:24.096Z,90.9
2017-03-05T07:01:33.836Z,90.9
2017-03-05T07:02:43.994Z,90.99
2017-03-05T07:03:53.881Z,91.28
2017-03-05T07:05:03.613Z,91.28
2017-03-05T07:06:13.767Z,91.85
2017-03-05T07:07:23.102Z,91.85
2017-03-05T07:08:32.899Z,92.04
2017-03-05T07:09:42.858Z,92.9
2017-03-05T07:10:51.803Z,92.71
2017-03-05T07:12:01.464Z,92.42
2017-03-05T07:13:10.817Z,92.42
2017-03-05T07:14:20.564Z,92.51
2017-03-05T07:15:30.349Z,92.8
2017-03-05T07:16:39.273Z,92.23
2017-03-05T07:17:49.443Z,92.71
2017-03-05T07:18:59.181Z,92.61
2017-03-05T07:20:08.100Z,92.13
2017-03-05T07:21:19.133Z,91.85
2017-03-05T07:22:29.293Z,92.13
2017-03-05T07:23:38.222Z,91.85
2017-03-05T07:24:47.545Z,91.85
2017-03-05T07:25:57.281Z,91.66
2017-03-05T07:27:08.562Z,91.75
2017-03-05T07:28:18.742Z,91.61
2017-03-05T07:29:28.328Z,91.61
2017-03-05T07:30:38.817Z,91.89
2017-03-05T07:31:48.172Z,91.61
2017-03-05T07:32:57.658Z,91.8
2017-03-05T07:34:07.344Z,91.52
2017-03-05T07:35:16.713Z,90.85
2017-03-05T07:36:26.068Z,91.23
2017-03-05T07:37:35.475Z,91.04
2017-03-05T07:38:44.397Z,90.85
2017-03-05T07:39:53.782Z,91.04
2017-03-05T07:41:03.101Z,91.23
2017-03-05T07:42:12.836Z,91.13
2017-03-05T07:43:23.015Z,91.23
2017-03-05T07:44:33.152Z,91.13
2017-03-05T07:45:43.215Z,91.13
2017-03-05T07:46:53.370Z,91.23
2017-03-05T07:48:04.195Z,90.66
2017-03-05T07:49:13.741Z,91.23
2017-03-05T07:50:23.474Z,91.23
2017-03-05T07:51:32.404Z,90.37
2017-03-05T07:52:41.762Z,90.94
2017-03-05T07:53:51.308Z,91.04
2017-03-05T07:55:01.898Z,90.37
2017-03-05T07:56:11.374Z,91.13
2017-03-05T07:57:21.384Z,90.75
2017-03-05T07:58:31.577Z,90.28
2017-03-05T07:59:42.229Z,91.13
2017-03-05T08:00:52.026Z,90.09
2017-03-05T08:02:02.350Z,90.19
2017-03-05T08:03:12.503Z,90.28
2017-03-05T08:04:22.232Z,90.56
2017-03-05T08:05:31.975Z,90.85
2017-03-05T08:06:42.153Z,90.94
2017-03-05T08:07:51.134Z,90.94
2017-03-05T08:09:00.481Z,90.37
2017-03-05T08:10:09.804Z,91.33
2017-03-05T08:11:19.569Z,90.85
2017-03-05T08:12:28.906Z,90.66
2017-03-05T08:13:38.341Z,90.85
2017-03-05T08:14:47.667Z,90.66
2017-03-05T08:15:56.989Z,90.37
2017-03-05T08:17:06.348Z,90.09
2017-03-05T08:18:16.091Z,90.56
2017-03-05T08:19:25.467Z,89.61
2017-03-05T08:20:34.793Z,89.9
2017-03-05T08:21:44.130Z,89.66
2017-03-05T08:22:53.470Z,89.8
2017-03-05T08:24:02.799Z,89.47
2017-03-05T08:25:11.764Z,89.85
2017-03-05T08:26:21.086Z,89.94
2017-03-05T08:27:31.221Z,90.23
2017-03-05T08:28:40.982Z,89.47
2017-03-05T08:29:51.527Z,89.75
2017-03-05T08:31:01.374Z,90.33
2017-03-05T08:32:10.720Z,90.33
2017-03-05T08:33:19.639Z,90.7
2017-03-05T08:34:28.579Z,91.56
2017-03-05T08:35:37.519Z,92.32
2017-03-05T08:36:47.017Z,92.51
2017-03-05T08:37:56.779Z,92.51
2017-03-05T08:39:06.112Z,92.32
2017-03-05T08:40:16.264Z,92.75
2017-03-05T08:41:25.613Z,92.8
2017-03-05T08:42:35.853Z,92.7
2017-03-05T08:43:45.619Z,93.27
2017-03-05T08:44:54.941Z,92.51
2017-03-05T08:46:04.676Z,91.08
2017-03-05T08:47:14.419Z,91.28
2017-03-05T08:48:23.528Z,91.37
2017-03-05T08:49:33.273Z,90.89
2017-03-05T08:50:43.047Z,90.23
2017-03-05T08:51:52.805Z,90.23
2017-03-05T08:53:02.153Z,90.42
2017-03-05T08:54:12.045Z,90.33
2017-03-05T08:55:21.371Z,89.18
2017-03-05T08:56:31.527Z,89.37
2017-03-05T08:57:40.890Z,89.56
2017-03-05T08:58:50.632Z,89.09
2017-03-05T08:59:59.781Z,88.9
2017-03-05T09:01:09.526Z,88.33
2017-03-05T09:02:18.853Z,87.85
2017-03-05T09:03:28.187Z,86.99
2017-03-05T09:04:37.127Z,86.71
2017-03-05T09:05:47.568Z,86.61
2017-03-05T09:06:57.713Z,86.33
2017-03-05T09:08:08.257Z,86.05
2017-03-05T09:09:17.634Z,85.86
2017-03-05T09:10:26.976Z,85.95
2017-03-05T09:11:37.576Z,85.86
2017-03-05T09:12:46.519Z,85.66
2017-03-05T09:13:56.663Z,86.33
2017-03-05T09:15:05.990Z,86.33
2017-03-05T09:16:14.937Z,86.71
2017-03-05T09:17:25.797Z,86.43
2017-03-05T09:18:35.962Z,86.52
2017-03-05T09:19:45.298Z,86.66
2017-03-05T09:20:54.617Z,85.99
2017-03-05T09:22:04.346Z,85.8
2017-03-05T09:23:14.187Z,85.9
2017-03-05T09:24:23.553Z,85.52
2017-03-05T09:25:33.315Z,84.66
2017-03-05T09:26:43.465Z,84.95
2017-03-05T09:27:53.194Z,84.85
2017-03-05T09:29:02.776Z,85.24
2017-03-05T09:30:12.130Z,85.14
2017-03-05T09:31:21.867Z,84.76
2017-03-05T09:32:30.817Z,84.47
2017-03-05T09:33:39.749Z,84.56
2017-03-05T09:34:49.993Z,84.09
2017-03-05T09:35:58.936Z,82.95
2017-03-05T09:37:08.699Z,82.57
2017-03-05T09:38:17.651Z,82.57
2017-03-05T09:39:26.578Z,82.38
2017-03-05T09:40:36.219Z,81.47
2017-03-05T09:41:45.967Z,81.81
2017-03-05T09:42:55.759Z,81.33
2017-03-05T09:44:05.081Z,81.62
2017-03-05T09:45:14.823Z,81.9
2017-03-05T09:46:25.394Z,81.09
2017-03-05T09:47:35.197Z,80.95
2017-03-05T09:48:44.938Z,80
2017-03-05T09:49:55.088Z,80.95
2017-03-05T09:51:04.412Z,80.57
2017-03-05T09:53:54.017Z,80.86
2017-03-05T09:55:04.999Z,80.66
2017-03-05T09:56:14.385Z,80.71
2017-03-05T09:57:24.287Z,80.52
2017-03-05T09:58:33.654Z,80.9
2017-03-05T09:59:43.858Z,80.42
2017-03-05T10:00:53.186Z,80.99
2017-03-05T10:02:03.342Z,79.75
2017-03-05T10:03:13.117Z,79.66
2017-03-05T10:04:22.884Z,79.85
2017-03-05T10:05:32.235Z,80.13
2017-03-05T10:06:41.194Z,79.57
2017-03-05T10:07:50.132Z,79.19
2017-03-05T10:08:59.869Z,79.19
2017-03-05T10:10:09.621Z,78.71
2017-03-05T10:11:18.561Z,78.99
2017-03-05T10:12:27.917Z,79.38
2017-03-05T10:13:37.665Z,78.61
2017-03-05T10:14:47.590Z,78.8
2017-03-05T10:15:56.550Z,78.9
2017-03-05T10:17:06.289Z,78.52
2017-03-05T10:18:15.267Z,78.9
2017-03-05T10:19:24.630Z,78.9
2017-03-05T10:20:34.637Z,79.19
2017-03-05T10:21:44.792Z,79.28
2017-03-05T10:22:54.605Z,79.47
2017-03-05T10:24:03.950Z,78.61
2017-03-05T10:25:14.098Z,78.99
2017-03-05T10:26:23.996Z,78.9
2017-03-05T10:27:33.756Z,78.71
2017-03-05T10:28:43.165Z,78.9
2017-03-05T10:29:52.116Z,79.47
2017-03-05T10:31:01.463Z,78.8
2017-03-05T10:32:10.902Z,78.9
2017-03-05T10:33:20.335Z,78.71
2017-03-05T10:34:29.760Z,78.52
2017-03-05T10:35:39.535Z,77.95
2017-03-05T10:36:49.281Z,78.52
2017-03-05T10:37:59.594Z,76.9
2017-03-05T10:39:09.357Z,77.28
2017-03-05T10:40:19.329Z,77.66
2017-03-05T10:41:28.340Z,77.37
2017-03-05T10:42:38.549Z,77.19
2017-03-05T10:43:48.024Z,77.56
2017-03-05T10:44:57.354Z,77.19
2017-03-05T10:46:06.699Z,77.66
2017-03-05T10:47:16.035Z,77.47
2017-03-05T10:48:24.963Z,77.19
2017-03-05T10:49:34.254Z,76.61
2017-03-05T10:50:43.375Z,76.23
2017-03-05T10:51:54.368Z,76.9
2017-03-05T10:53:04.127Z,76.61
2017-03-05T10:54:13.455Z,76.61
2017-03-05T10:55:22.997Z,76.71
2017-03-05T10:56:32.764Z,76.71
2017-03-05T10:57:41.793Z,76.42
2017-03-05T10:58:51.173Z,76.33
2017-03-05T11:00:01.334Z,76.71
2017-03-05T11:01:10.276Z,76.23
2017-03-05T11:02:19.604Z,76.81
2017-03-05T11:03:29.381Z,75.57
2017-03-05T11:04:39.560Z,75.38
2017-03-05T11:05:48.901Z,75.28
2017-03-05T11:06:58.292Z,75.42
2017-03-05T11:08:07.226Z,74.75
2017-03-05T11:09:16.977Z,74.84
2017-03-05T11:10:27.148Z,74.18
2017-03-05T11:11:36.889Z,73.7
2017-03-05T11:12:46.673Z,73.41
2017-03-05T11:13:56.405Z,73.89
2017-03-05T11:15:06.968Z,73.89
2017-03-05T11:16:16.292Z,74.24
2017-03-05T11:17:26.051Z,74.37
2017-03-05T11:18:35.228Z,73.8
2017-03-05T11:19:44.564Z,73.99
2017-03-05T11:20:53.893Z,73.8
2017-03-05T11:22:03.223Z,72.94
2017-03-05T11:23:12.954Z,73.8
2017-03-05T11:24:22.437Z,73.8
2017-03-05T11:25:31.769Z,73.41
2017-03-05T11:26:40.695Z,73.03
2017-03-05T11:27:49.622Z,73.51
2017-03-05T11:28:58.958Z,73.99
2017-03-05T11:30:08.749Z,73.61
2017-03-05T11:31:18.078Z,72.94
2017-03-05T11:32:27.402Z,72.17
2017-03-05T11:33:36.750Z,72.56
2017-03-05T11:34:46.499Z,72.46
2017-03-05T11:35:56.378Z,71.7
2017-03-05T11:37:05.707Z,70.75
2017-03-05T11:38:15.855Z,70.84
2017-03-05T11:39:25.179Z,70.47
2017-03-05T11:40:34.913Z,70.75
2017-03-05T11:41:44.030Z,70.31
2017-03-05T11:42:53.763Z,69.45
2017-03-05T11:44:03.090Z,69.26
2017-03-05T11:45:12.427Z,68.69
2017-03-05T11:46:21.765Z,67.45
2017-03-05T11:47:32.159Z,67.35
2017-03-05T11:48:41.078Z,67.45
2017-03-05T11:49:50.437Z,67.35
2017-03-05T11:50:59.774Z,67.64
2017-03-05T11:52:09.098Z,67.74
2017-03-05T11:53:19.004Z,67.45
2017-03-05T11:54:29.183Z,67.16
2017-03-05T11:55:38.917Z,66.5
2017-03-05T11:56:48.241Z,66.02
2017-03-05T11:57:57.973Z,67.07
2017-03-05T11:59:07.476Z,67.35
2017-03-05T12:00:16.809Z,67.35
2017-03-05T12:01:26.542Z,67.26
2017-03-05T12:02:36.713Z,67.16
2017-03-05T12:03:46.056Z,67.45
2017-03-05T12:04:55.487Z,66.59
2017-03-05T12:06:05.662Z,66.31
2017-03-05T12:07:15.815Z,66.78
2017-03-05T12:08:24.736Z,67.16
2017-03-05T12:09:34.889Z,67.45
2017-03-05T12:10:43.925Z,67.45
2017-03-05T12:11:54.073Z,66.5
2017-03-05T12:13:04.215Z,66.85
2017-03-05T12:14:13.536Z,67.26
2017-03-05T12:15:22.866Z,67.16
2017-03-05T12:16:32.832Z,67.74
2017-03-05T12:17:42.976Z,67.45
2017-03-05T12:18:52.313Z,67.51
2017-03-05T12:20:01.644Z,67.93
2017-03-05T12:21:11.807Z,67.74
2017-03-05T12:22:20.876Z,68.5
2017-03-05T12:23:30.198Z,68.4
2017-03-05T12:24:39.118Z,68.4
2017-03-05T12:25:48.437Z,67.93
2017-03-05T12:26:58.201Z,67.83
2017-03-05T12:28:07.925Z,68.3
2017-03-05T12:29:16.862Z,68.4
2017-03-05T12:30:26.593Z,68.4
2017-03-05T12:31:35.920Z,67.64
2017-03-05T12:32:45.674Z,68.4
2017-03-05T12:33:55.082Z,67.64
2017-03-05T12:35:04.815Z,68.21
2017-03-05T12:36:13.734Z,68.88
2017-03-05T12:37:23.481Z,68.88
2017-03-05T12:38:32.803Z,68.98
2017-03-05T12:39:42.790Z,69.74
2017-03-05T12:40:52.526Z,69.83
2017-03-05T12:42:01.854Z,69.93
2017-03-05T12:43:11.189Z,70.59
2017-03-05T12:44:20.946Z,69.26
2017-03-05T12:45:30.375Z,69.35
2017-03-05T12:46:39.702Z,69.45
2017-03-05T12:47:49.857Z,69.45
2017-03-05T12:48:59.602Z,68.98
2017-03-05T12:50:08.934Z,69.35
2017-03-05T12:51:18.450Z,68.78
2017-03-05T12:52:27.812Z,67.74
2017-03-05T12:53:37.549Z,68.5
2017-03-05T12:54:47.699Z,68.12
2017-03-05T12:55:57.449Z,68.3
2017-03-05T12:57:07.755Z,68.78
2017-03-05T12:58:17.086Z,68.69
2017-03-05T12:59:26.424Z,68.4
2017-03-05T13:00:35.357Z,68.3
2017-03-05T13:01:45.089Z,67.45
2017-03-05T13:02:54.466Z,66.59
2017-03-05T13:04:04.213Z,66.59
2017-03-05T13:05:13.538Z,67.07
2017-03-05T13:06:22.481Z,66.21
2017-03-05T13:07:31.411Z,66.53
2017-03-05T13:08:41.390Z,66.31
2017-03-05T13:09:51.000Z,65.48
2017-03-05T13:11:00.743Z,65.86
2017-03-05T13:12:10.952Z,66.05
2017-03-05T13:13:21.935Z,66.21
2017-03-05T13:14:32.134Z,65.67
2017-03-05T13:15:41.491Z,65.2
2017-03-05T13:16:50.835Z,64.53
2017-03-05T13:18:00.589Z,63.29
2017-03-05T13:19:09.526Z,62.52
2017-03-05T13:20:19.326Z,60.62
2017-03-05T13:21:28.657Z,59.99
2017-03-05T13:22:37.990Z,59.03
2017-03-05T13:23:47.351Z,58.55
2017-03-05T13:24:56.285Z,58.84
2017-03-05T13:26:06.042Z,58.55
2017-03-05T13:27:15.422Z,58.75
2017-03-05T13:28:25.581Z,57.98
2017-03-05T13:29:34.940Z,58.55
2017-03-05T13:30:44.273Z,58.84
2017-03-05T13:31:53.750Z,59.7
2017-03-05T13:33:03.914Z,58.36
2017-03-05T13:34:13.278Z,59.6
2017-03-05T13:35:23.015Z,59.79
2017-03-05T13:36:33.172Z,59.12
2017-03-05T13:37:42.538Z,58.94
2017-03-05T13:38:51.886Z,59.06
2017-03-05T13:40:02.027Z,58.97
2017-03-05T13:41:11.375Z,59.03
2017-03-05T13:42:20.927Z,58.75
2017-03-05T13:43:29.862Z,59.03
2017-03-05T13:44:39.608Z,60.36
2017-03-05T13:45:48.533Z,60.62
2017-03-05T13:46:58.714Z,60.27
2017-03-05T13:48:08.855Z,60.24
2017-03-05T13:49:18.183Z,61.1
2017-03-05T13:50:27.542Z,60.62
2017-03-05T13:51:37.276Z,60.72
2017-03-05T13:52:47.023Z,60.81
2017-03-05T13:53:55.955Z,60.43
2017-03-05T13:55:06.095Z,59.79
2017-03-05T13:56:15.884Z,58.46
2017-03-05T13:57:25.629Z,55.98
2017-03-05T13:58:35.396Z,56.07
2017-03-05T13:59:44.318Z,55.88
2017-03-05T14:00:53.703Z,55.5
2017-03-05T14:02:03.889Z,55.69
2017-03-05T14:03:13.279Z,55.88
2017-03-05T14:04:22.635Z,55.79
2017-03-05T14:05:31.996Z,55.98
2017-03-05T14:06:40.919Z,57.03
2017-03-05T14:07:50.245Z,56.74
2017-03-05T14:09:00.233Z,57.5
2017-03-05T14:10:09.563Z,57.41
2017-03-05T14:11:18.510Z,57.03
2017-03-05T14:12:27.833Z,57.31
2017-03-05T14:13:38.408Z,56.84
2017-03-05T14:14:49.056Z,57.7
2017-03-05T14:15:58.803Z,57.31
2017-03-05T14:17:08.548Z,57.41
2017-03-05T14:18:17.479Z,57.12
2017-03-05T14:19:26.814Z,56.84
2017-03-05T14:20:36.454Z,57.31
2017-03-05T14:21:46.207Z,57.6
2017-03-05T14:22:55.535Z,57.6
2017-03-05T14:24:05.271Z,56.43
2017-03-05T14:25:14.611Z,56.26
2017-03-05T14:26:24.137Z,56.26
2017-03-05T14:27:33.461Z,55.98
2017-03-05T14:28:42.794Z,56.62
2017-03-05T14:29:52.565Z,55.98
2017-03-05T14:31:02.304Z,56.33
2017-03-05T14:32:12.518Z,55.85
2017-03-05T14:33:22.255Z,55.31
2017-03-05T14:34:31.180Z,55.02
2017-03-05T14:35:40.523Z,55
2017-03-05T14:36:50.269Z,53.97
2017-03-05T14:37:59.484Z,53.02
2017-03-05T14:39:08.826Z,52.45
2017-03-05T14:40:17.761Z,52.26
2017-03-05T14:41:27.162Z,52.16
2017-03-05T14:42:36.906Z,51.97
2017-03-05T14:43:46.299Z,51.5
2017-03-05T14:44:55.641Z,51.4
2017-03-05T14:46:05.378Z,51.68
2017-03-05T14:47:14.760Z,51.5
2017-03-05T14:48:24.099Z,50.92
2017-03-05T14:49:33.682Z,51.4
2017-03-05T14:50:43.018Z,51.4
2017-03-05T14:51:52.341Z,51.02
2017-03-05T14:53:02.100Z,50.07
2017-03-05T14:54:11.438Z,50.73
2017-03-05T14:55:21.130Z,50.38
2017-03-05T14:56:30.051Z,49.9
2017-03-05T14:57:39.389Z,49.52
2017-03-05T14:58:48.335Z,49.13
2017-03-05T14:59:57.661Z,49.23
2017-03-05T15:01:07.592Z,48.85
2017-03-05T15:02:16.934Z,47.89